Time;durP1;ratioP1;P1;durP2;ratioP2;P2;SDS_P1;SDS_P2;PMS_P1;PMS_P2;Temp;Humidity;BMP_temperature;BMP_pressure;BME280_temperature;BME280_humidity;BME280_pressure;Samples;Min_cycle;Max_cycle;Signal;HPM_P1;HPM_P2
2023/08/18 00:08:32;;;;;;;0.05;0.05;;;;;;;23.34;60.43;99806.38;4820549;28;20082;-96
2023/08/18 00:11:08;;;;;;;0.20;0.20;;;;;;;23.36;60.44;99813.22;4298738;33;20087;-96
2023/08/18 00:13:38;;;;;;;6.22;2.15;;;;;;;23.45;60.44;99807.16;4287699;33;20099;-96
2023/08/18 00:19:19;;;;;;;0.30;0.30;;;;;;;23.27;60.42;99812.19;4327016;27;20111;-96
2023/08/18 00:21:44;;;;;;;0.20;0.20;;;;;;;23.30;60.43;99799.62;4285357;33;20113;-96
2023/08/18 00:24:10;;;;;;;0.55;0.55;;;;;;;23.24;60.43;99806.31;4285436;33;20131;-96
2023/08/18 00:26:38;;;;;;;0.40;0.40;;;;;;;23.29;60.44;99804.09;4289033;33;20131;-96
2023/08/18 00:29:11;;;;;;;0.57;0.57;;;;;;;23.22;60.43;99808.25;4277191;33;20065;-96
2023/08/18 00:31:40;;;;;;;5.78;1.20;;;;;;;23.27;60.44;99804.22;4304410;33;20073;-96
2023/08/18 00:34:08;;;;;;;3.15;1.45;;;;;;;23.39;60.43;99799.69;4317924;33;20077;-96
2023/08/18 00:36:49;;;;;;;1.50;1.10;;;;;;;23.39;60.44;99798.84;4292029;33;20128;-96
2023/08/18 00:43:31;;;;;;;0.43;0.43;;;;;;;23.58;60.44;99793.69;4318819;33;20136;-96
2023/08/18 00:46:50;;;;;;;0.22;0.22;;;;;;;23.31;60.43;99786.22;4235630;33;20067;-96
2023/08/18 00:49:50;;;;;;;0.45;0.45;;;;;;;23.37;60.44;99792.81;4217971;34;20083;-96
2023/08/18 00:52:57;;;;;;;1.25;0.47;;;;;;;23.55;60.44;99784.12;4229469;33;20079;-96
2023/08/18 01:02:45;;;;;;;0.20;0.20;;;;;;;23.71;60.45;99774.91;4396445;28;20780;-96
2023/08/18 01:07:49;;;;;;;0.65;0.62;;;;;;;23.53;60.44;99786.09;4269124;33;20106;-96
2023/08/18 01:10:21;;;;;;;0.20;0.20;;;;;;;23.40;60.43;99784.59;4247633;33;20176;-96
2023/08/18 01:18:04;;;;;;;0.43;0.43;;;;;;;23.31;60.43;99783.56;4269892;33;20143;-96
2023/08/18 01:39:03;;;;;;;0.25;0.13;;;;;;;23.36;60.44;99777.84;4646957;28;20220;-96
2023/08/18 01:41:39;;;;;;;0.50;0.50;;;;;;;23.36;60.44;99770.72;4227642;33;20186;-96
2023/08/18 01:44:21;;;;;;;0.00;0.00;;;;;;;23.21;60.43;99767.56;4229162;33;20189;-96
2023/08/18 01:55:00;;;;;;;0.10;0.10;;;;;;;23.31;60.43;99775.59;4184073;29;20139;-96
2023/08/18 01:58:00;;;;;;;0.40;0.35;;;;;;;23.72;60.45;99768.59;4187560;34;20135;-96
2023/08/18 02:00:55;;;;;;;;;;;;;;;;;;;;;
2023/08/18 02:04:15;;;;;;;;;;;;;;;;;;;;;
2023/08/18 02:07:24;;;;;;;0.50;0.50;;;;;;;23.51;60.43;99772.09;4202050;34;20087;-96
2023/08/18 02:10:53;;;;;;;0.43;0.43;;;;;;;23.54;60.44;99769.16;4196398;34;20083;-96
2023/08/18 02:19:54;;;;;;;;;;;;;;;;;;;;;
2023/08/18 02:22:55;;;;;;;0.40;0.40;;;;;;;23.40;60.43;99771.31;4216621;34;35321;-96
2023/08/18 02:25:55;;;;;;;0.10;0.10;;;;;;;23.51;60.45;99773.91;4200508;34;20078;-96
2023/08/18 02:28:38;;;;;;;0.50;0.50;;;;;;;23.87;60.46;99767.25;4213296;34;20188;-96
2023/08/18 02:31:11;;;;;;;0.70;0.65;;;;;;;24.15;60.48;99757.72;4236149;33;20749;-96
2023/08/18 02:33:40;;;;;;;0.17;0.17;;;;;;;23.97;60.46;99762.00;4216319;33;20165;-96
2023/08/18 02:36:18;;;;;;;0.00;0.00;;;;;;;23.85;60.46;99764.75;4241457;33;20098;-96
2023/08/18 03:03:33;;;;;;;0.47;0.47;;;;;;;23.49;60.44;99760.75;4960481;28;21449;-96
2023/08/18 03:06:08;;;;;;;1.95;0.82;;;;;;;23.52;60.43;99764.97;4267127;33;20096;-96
2023/08/18 03:09:07;;;;;;;0.50;0.50;;;;;;;23.55;60.44;99772.66;4259709;33;20131;-96
2023/08/18 03:12:12;;;;;;;0.40;0.40;;;;;;;23.56;60.44;99761.09;4262272;33;20069;-96
2023/08/18 04:07:57;;;;;;;0.28;0.28;;;;;;;23.72;60.44;99763.28;4295231;33;20156;-96
2023/08/18 04:10:40;;;;;;;0.60;0.50;;;;;;;23.73;60.44;99767.63;4295097;33;20108;-96
2023/08/18 04:43:16;;;;;;;2.12;1.15;;;;;;;24.24;60.48;99764.03;4271968;33;20179;-96
2023/08/18 04:46:02;;;;;;;0.20;0.20;;;;;;;24.22;60.48;99758.88;4248131;33;20109;-96
2023/08/18 04:48:27;;;;;;;0.88;0.65;;;;;;;24.53;60.48;99748.16;4227091;33;20139;-96
2023/08/18 04:51:23;;;;;;;0.17;0.17;;;;;;;24.64;60.50;99751.56;4229982;33;20135;-96
2023/08/18 04:53:56;;;;;;;0.40;0.40;;;;;;;24.77;60.51;99757.44;4269959;33;20117;-96
2023/08/18 04:57:10;;;;;;;19.17;0.90;;;;;;;24.76;60.49;99753.09;4239448;33;20244;-96
2023/08/18 05:00:01;;;;;;;0.88;0.75;;;;;;;24.73;60.50;99760.53;4265258;33;20164;-96
2023/08/18 05:02:26;;;;;;;0.10;0.10;;;;;;;25.04;60.51;99759.44;4229628;33;20653;-96
2023/08/18 05:04:52;;;;;;;0.80;0.75;;;;;;;25.08;60.51;99755.53;4250132;33;20109;-95
2023/08/18 05:10:25;;;;;;;0.45;0.32;;;;;;;24.85;60.50;99771.91;4525297;28;20139;-96
2023/08/18 05:12:59;;;;;;;1.48;1.12;;;;;;;24.80;60.50;99778.47;4237849;33;20738;-96
2023/08/18 05:19:39;;;;;;;0.10;0.10;;;;;;;24.94;60.51;99776.38;4289459;33;20083;-96
2023/08/18 05:22:21;;;;;;;0.45;0.45;;;;;;;24.98;60.51;99781.28;4280679;33;20100;-96
2023/08/18 05:24:52;;;;;;;7.57;1.98;;;;;;;25.14;60.52;99779.91;4281119;33;20113;-96
2023/08/18 05:27:19;;;;;;;6.12;1.60;;;;;;;25.33;60.53;99780.75;4291673;33;20069;-96
2023/08/18 05:29:45;;;;;;;0.10;0.10;;;;;;;25.44;60.53;99786.88;4281463;33;20100;-96
2023/08/18 05:32:10;;;;;;;0.45;0.37;;;;;;;25.49;60.54;99785.47;4280539;33;20438;-95
2023/08/18 05:37:18;;;;;;;0.88;0.85;;;;;;;25.67;60.55;99782.94;4518275;28;20116;-96
2023/08/18 05:39:46;;;;;;;0.68;0.65;;;;;;;25.80;60.56;99780.81;4289641;33;20064;-96
2023/08/18 05:42:13;;;;;;;0.28;0.28;;;;;;;25.98;60.56;99781.69;4292228;33;20175;-96
2023/08/18 05:44:38;;;;;;;1.67;1.20;;;;;;;26.01;60.56;99786.72;4297591;33;20149;-96
2023/08/18 05:47:04;;;;;;;0.28;0.28;;;;;;;26.14;60.57;99796.25;4280407;33;20132;-96
2023/08/18 05:49:30;;;;;;;0.40;0.40;;;;;;;26.25;60.57;99798.69;4280567;33;20109;-96
2023/08/18 05:51:55;;;;;;;1.10;0.40;;;;;;;26.41;60.58;99798.09;4279747;33;20092;-96
2023/08/18 05:54:23;;;;;;;1.85;0.75;;;;;;;26.47;60.58;99793.00;4280190;33;20092;-96
2023/08/18 05:56:50;;;;;;;0.35;0.35;;;;;;;26.44;60.58;99795.13;4279363;33;20097;-96
2023/08/18 05:59:16;;;;;;;2.15;0.82;;;;;;;26.65;60.59;99797.53;4279532;33;20175;-96
2023/08/18 06:01:45;;;;;;;8.77;1.05;;;;;;;26.51;60.59;99796.22;4280852;33;20108;-96
2023/08/18 06:04:26;;;;;;;0.55;0.55;;;;;;;26.53;60.59;99800.44;4294438;33;20160;-96
2023/08/18 06:06:52;;;;;;;0.55;0.55;;;;;;;26.86;60.61;99790.06;4294626;33;20097;-96
2023/08/18 06:09:19;;;;;;;1.30;0.70;;;;;;;26.97;60.61;99789.00;4281450;33;20183;-96
2023/08/18 06:12:12;;;;;;;0.28;0.20;;;;;;;26.76;60.61;99792.00;4297263;33;20106;-96
2023/08/18 06:14:38;;;;;;;0.32;0.32;;;;;;;26.82;60.61;99794.03;4287638;33;20080;-96
2023/08/18 06:17:04;;;;;;;1.83;1.05;;;;;;;26.70;60.60;99792.56;4297328;33;20114;-96
2023/08/18 06:19:30;;;;;;;1.67;1.50;;;;;;;26.82;60.61;99784.19;4269632;33;20404;-96
2023/08/18 06:21:56;;;;;;;1.12;0.60;;;;;;;27.08;60.62;99789.66;4269436;33;20119;-96
2023/08/18 06:24:47;;;;;;;0.30;0.30;;;;;;;27.17;60.62;99798.56;4294781;33;20088;-96
2023/08/18 06:27:21;;;;;;;0.65;0.65;;;;;;;27.23;60.63;99784.59;4296282;33;20093;-96
2023/08/18 06:29:47;;;;;;;0.40;0.40;;;;;;;27.24;60.63;99782.75;4280814;33;20723;-96
2023/08/18 06:32:18;;;;;;;1.33;1.23;;;;;;;27.15;60.62;99782.69;4271023;33;20118;-96
2023/08/18 06:34:47;;;;;;;0.00;0.00;;;;;;;27.23;60.63;99778.41;4270876;33;20518;-95
2023/08/18 06:37:15;;;;;;;0.47;0.47;;;;;;;27.41;60.64;99776.53;4269820;33;20076;-95
2023/08/18 06:39:41;;;;;;;1.10;0.88;;;;;;;27.53;60.65;99780.63;4270187;33;20077;-96
2023/08/18 06:42:13;;;;;;;0.62;0.62;;;;;;;27.49;60.63;99777.44;4292350;33;20115;-96
2023/08/18 06:44:40;;;;;;;5.00;2.00;;;;;;;27.60;60.64;99781.69;4270415;33;20437;-96
2023/08/18 06:47:08;;;;;;;0.70;0.62;;;;;;;28.00;60.67;99777.59;4270249;33;20112;-96
2023/08/18 06:49:33;;;;;;;0.25;0.15;;;;;;;28.00;60.67;99775.75;4270606;33;20172;-96
2023/08/18 06:56:21;;;;;;;0.57;0.47;;;;;;;28.37;60.68;99783.44;4264284;33;20180;-96
2023/08/18 07:02:25;;;;;;;0.32;0.32;;;;;;;28.80;60.71;99783.41;4290706;33;20105;-94
2023/08/18 07:04:53;;;;;;;1.37;1.27;;;;;;;28.89;60.71;99794.00;4285511;33;20084;-95
2023/08/18 07:07:30;;;;;;;0.52;0.43;;;;;;;29.09;60.72;99791.81;4277692;33;20069;-95
2023/08/18 07:09:58;;;;;;;0.47;0.47;;;;;;;29.10;60.72;99787.28;4270387;33;20181;-96
2023/08/18 07:12:24;;;;;;;0.43;0.43;;;;;;;29.24;60.73;99783.97;4268882;33;20113;-96
2023/08/18 07:14:49;;;;;;;0.40;0.40;;;;;;;29.18;60.73;99790.84;4268153;33;20176;-96
2023/08/18 07:17:15;;;;;;;1.05;0.95;;;;;;;29.43;60.74;99785.47;4279900;33;20085;-94
2023/08/18 07:19:40;;;;;;;1.25;0.98;;;;;;;29.30;60.73;99789.47;4272365;33;20139;-96
2023/08/18 07:22:06;;;;;;;2.65;0.57;;;;;;;29.27;60.73;99795.19;4267495;33;20136;-95
2023/08/18 07:24:32;;;;;;;0.40;0.40;;;;;;;29.36;60.74;99796.03;4267596;33;20113;-95
2023/08/18 07:26:57;;;;;;;0.50;0.50;;;;;;;29.54;60.74;99794.00;4268101;33;20097;-95
2023/08/18 07:29:23;;;;;;;0.65;0.43;;;;;;;29.52;60.75;99797.88;4267680;33;20136;-95
2023/08/18 07:31:48;;;;;;;1.80;0.47;;;;;;;29.57;60.74;99803.56;4267593;33;20401;-95
2023/08/18 07:34:14;;;;;;;1.42;1.33;;;;;;;29.63;60.75;99802.91;4267347;33;20097;-95
2023/08/18 07:36:39;;;;;;;0.55;0.55;;;;;;;29.69;60.75;99804.06;4267297;33;20107;-95
2023/08/18 07:39:10;;;;;;;0.47;0.47;;;;;;;29.72;60.76;99801.03;4267663;33;20105;-94
2023/08/18 07:41:37;;;;;;;0.15;0.15;;;;;;;29.83;60.76;99806.06;4280170;33;20177;-95
2023/08/18 07:44:03;;;;;;;2.05;0.85;;;;;;;29.46;60.74;99815.50;4267800;33;20803;-93
2023/08/18 07:46:30;;;;;;;0.10;0.10;;;;;;;29.49;60.74;99811.63;4267034;33;20109;-95
2023/08/18 07:48:55;;;;;;;1.37;0.77;;;;;;;29.47;60.74;99825.22;4276746;33;20092;-94
2023/08/18 07:51:21;;;;;;;6.55;1.30;;;;;;;29.55;60.75;99822.50;4280100;33;20081;-95
2023/08/18 07:53:46;;;;;;;0.43;0.43;;;;;;;29.64;60.76;99818.84;4271544;33;21631;-95
2023/08/18 07:56:12;;;;;;;0.30;0.30;;;;;;;29.79;60.76;99826.16;4268119;33;20127;-94
2023/08/18 07:58:37;;;;;;;0.25;0.25;;;;;;;29.59;60.75;99829.25;4268487;33;20116;-94
2023/08/18 08:01:03;;;;;;;0.60;0.60;;;;;;;29.55;60.75;99841.28;4267573;33;20116;-95
2023/08/18 08:03:28;;;;;;;0.40;0.40;;;;;;;29.40;60.74;99848.31;4267594;33;20096;-95
2023/08/18 08:05:54;;;;;;;0.25;0.25;;;;;;;29.22;60.73;99853.00;4267525;33;20140;-95
2023/08/18 08:08:20;;;;;;;0.70;0.70;;;;;;;29.11;60.72;99853.34;4267469;33;20097;-95
2023/08/18 08:10:45;;;;;;;2.60;1.05;;;;;;;29.22;60.73;99855.69;4267590;33;20134;-95
2023/08/18 08:13:10;;;;;;;0.75;0.75;;;;;;;29.09;60.72;99855.31;4267321;33;20121;-95
2023/08/18 08:15:37;;;;;;;0.10;0.10;;;;;;;28.95;60.73;99854.13;4267322;33;20476;-96
2023/08/18 08:18:03;;;;;;;0.75;0.75;;;;;;;29.08;60.72;99857.16;4267155;33;20765;-95
2023/08/18 08:20:29;;;;;;;0.57;0.57;;;;;;;29.06;60.73;99856.47;4266870;33;20473;-96
2023/08/18 08:22:54;;;;;;;0.47;0.43;;;;;;;29.04;60.73;99862.00;4267713;33;20164;-95
2023/08/18 08:25:20;;;;;;;0.10;0.10;;;;;;;28.93;60.72;99862.34;4267412;33;20391;-96
2023/08/18 08:27:45;;;;;;;1.27;0.50;;;;;;;28.98;60.73;99862.69;4268232;33;20123;-96
2023/08/18 08:30:12;;;;;;;1.48;0.70;;;;;;;29.08;60.73;99864.34;4271338;33;20109;-91
2023/08/18 08:32:40;;;;;;;0.43;0.40;;;;;;;29.26;60.74;99857.84;4386251;28;20052;-96
2023/08/18 08:35:07;;;;;;;0.50;0.50;;;;;;;29.46;60.75;99869.13;4318721;28;20069;-96
2023/08/18 08:37:33;;;;;;;0.30;0.30;;;;;;;29.82;60.77;99868.78;4174156;33;3258436;-96
2023/08/18 08:39:58;;;;;;;0.40;0.40;;;;;;;29.96;60.77;99868.06;4260562;33;20108;-92
2023/08/18 08:42:23;;;;;;;1.52;1.40;;;;;;;30.31;60.80;99869.53;4267004;33;20114;-95
2023/08/18 08:44:50;;;;;;;0.80;0.80;;;;;;;30.81;60.81;99862.97;4281914;33;20482;-93
2023/08/18 08:47:16;;;;;;;1.85;1.33;;;;;;;31.01;60.83;99853.44;4269078;33;20065;-93
2023/08/18 08:49:44;;;;;;;0.77;0.77;;;;;;;31.30;60.84;99851.91;4267381;33;20172;-93
2023/08/18 08:52:16;;;;;;;0.75;0.75;;;;;;;31.59;60.86;99851.16;4266539;33;20092;-93
2023/08/18 08:55:02;;;;;;;0.70;0.70;;;;;;;31.73;60.86;99842.31;4278762;33;20089;-93
2023/08/18 08:57:28;;;;;;;0.45;0.40;;;;;;;31.94;60.87;99847.81;4282535;33;20077;-94
2023/08/18 08:59:57;;;;;;;1.55;1.00;;;;;;;31.99;60.88;99841.87;4280070;33;20105;-93
2023/08/18 09:02:31;;;;;;;1.90;0.70;;;;;;;32.21;60.89;99830.19;4265747;33;20469;-93
2023/08/18 09:05:00;;;;;;;1.10;1.00;;;;;;;32.10;60.88;99829.81;4277549;33;20113;-93
2023/08/18 09:07:55;;;;;;;0.37;0.37;;;;;;;32.11;60.88;99831.47;4265617;33;20410;-93
2023/08/18 09:10:20;;;;;;;1.20;1.10;;;;;;;31.86;60.87;99823.66;4277613;33;20113;-93
2023/08/18 09:12:46;;;;;;;1.20;1.10;;;;;;;31.72;60.86;99832.56;4277907;33;20101;-92
2023/08/18 09:15:16;;;;;;;0.47;0.47;;;;;;;31.65;60.85;99831.59;4292326;33;20114;-95
2023/08/18 09:17:45;;;;;;;0.52;0.52;;;;;;;31.73;60.87;99839.63;4270607;33;20513;-96
2023/08/18 09:20:16;;;;;;;0.30;0.30;;;;;;;31.84;60.87;99823.00;4268971;33;20108;-94
2023/08/18 09:22:41;;;;;;;0.50;0.50;;;;;;;31.89;60.88;99817.06;4267082;33;20167;-96
2023/08/18 09:25:08;;;;;;;0.47;0.47;;;;;;;31.85;60.87;99822.00;4265833;33;20151;-93
2023/08/18 09:27:33;;;;;;;1.27;0.80;;;;;;;31.90;60.87;99819.56;4254423;33;20101;-96
2023/08/18 09:29:59;;;;;;;2.00;1.10;;;;;;;31.78;60.86;99809.47;4267203;33;20438;-94
2023/08/18 09:32:27;;;;;;;0.62;0.57;;;;;;;31.91;60.87;99821.25;4265516;33;20117;-94
2023/08/18 09:34:53;;;;;;;0.85;0.85;;;;;;;31.96;60.88;99813.47;4272995;33;20109;-93
2023/08/18 09:37:18;;;;;;;0.57;0.37;;;;;;;31.86;60.87;99817.44;4291589;33;20123;-93
2023/08/18 09:39:46;;;;;;;2.05;0.95;;;;;;;32.06;60.89;99818.56;4303346;33;20122;-93
2023/08/18 09:42:15;;;;;;;1.05;0.95;;;;;;;31.99;60.88;99823.88;4291557;33;20453;-92
2023/08/18 09:44:40;;;;;;;1.25;1.20;;;;;;;31.82;60.87;99811.59;4290807;33;20112;-93
2023/08/18 09:47:06;;;;;;;0.60;0.43;;;;;;;31.98;60.88;99816.81;4292111;33;20135;-94
2023/08/18 09:49:37;;;;;;;0.82;0.82;;;;;;;31.76;60.87;99823.09;4289200;33;20464;-94
2023/08/18 09:52:04;;;;;;;0.52;0.32;;;;;;;31.72;60.87;99817.25;4265214;33;20093;-93
2023/08/18 09:54:31;;;;;;;1.37;1.25;;;;;;;31.80;60.86;99819.03;4253660;33;20108;-94
2023/08/18 09:57:00;;;;;;;0.55;0.55;;;;;;;31.56;60.87;99811.16;4258714;33;20116;-92
2023/08/18 09:59:31;;;;;;;0.90;0.90;;;;;;;31.92;60.88;99819.38;4255029;33;20113;-92
2023/08/18 10:01:56;;;;;;;1.90;1.10;;;;;;;31.70;60.87;99819.25;4276552;33;20081;-90
2023/08/18 10:04:23;;;;;;;0.57;0.50;;;;;;;31.52;60.86;99820.63;4276050;33;20112;-91
2023/08/18 10:06:49;;;;;;;0.40;0.40;;;;;;;31.54;60.86;99815.91;4264799;33;20104;-91
2023/08/18 10:09:14;;;;;;;0.47;0.47;;;;;;;31.69;60.87;99814.88;4264549;33;20126;-92
2023/08/18 10:11:40;;;;;;;1.65;1.37;;;;;;;31.84;60.87;99814.94;4275738;33;20152;-90
2023/08/18 10:14:06;;;;;;;0.68;0.68;;;;;;;32.00;60.88;99812.06;4275853;33;20480;-89
2023/08/18 10:16:31;;;;;;;0.68;0.62;;;;;;;32.23;60.90;99808.44;4263055;33;20389;-92
2023/08/18 10:18:57;;;;;;;0.60;0.60;;;;;;;32.42;60.90;99804.38;4274663;33;20109;-92
2023/08/18 10:21:23;;;;;;;0.80;0.80;;;;;;;32.54;60.90;99805.53;4276279;33;20469;-90
2023/08/18 10:23:48;;;;;;;1.95;1.48;;;;;;;32.81;60.92;99804.84;4264555;33;20088;-90
2023/08/18 10:26:14;;;;;;;1.60;1.50;;;;;;;33.01;60.94;99810.44;4264112;33;20394;-92
2023/08/18 10:28:40;;;;;;;2.08;1.25;;;;;;;33.20;60.94;99801.69;4264193;33;20233;-92
2023/08/18 10:31:08;;;;;;;0.77;0.77;;;;;;;33.34;60.95;99804.53;4263772;33;20100;-91
2023/08/18 10:33:37;;;;;;;1.25;1.15;;;;;;;33.43;60.96;99795.28;4287376;33;20093;-90
2023/08/18 10:36:03;;;;;;;1.17;1.17;;;;;;;33.39;60.94;99792.16;4263756;33;20108;-89
2023/08/18 10:38:29;;;;;;;1.60;1.00;;;;;;;33.12;60.93;99791.03;4276641;33;20187;-91
2023/08/18 10:40:55;;;;;;;0.77;0.77;;;;;;;33.04;60.93;99807.34;4291379;33;20267;-89
2023/08/18 10:43:21;;;;;;;1.35;0.77;;;;;;;32.94;60.93;99802.28;4280851;33;20105;-90
2023/08/18 10:45:50;;;;;;;0.70;0.62;;;;;;;32.73;60.92;99796.00;4264999;33;20149;-91
2023/08/18 10:48:16;;;;;;;2.58;1.60;;;;;;;32.72;60.92;99797.03;4276216;33;20490;-90
2023/08/18 10:50:45;;;;;;;0.60;0.60;;;;;;;32.98;60.93;99797.34;4263063;33;20202;-89
2023/08/18 10:53:13;;;;;;;4.07;2.17;;;;;;;33.06;60.93;99794.50;4285853;33;20464;-88
2023/08/18 10:55:42;;;;;;;0.77;0.55;;;;;;;33.33;60.94;99789.38;4276773;33;20179;-89
2023/08/18 10:58:11;;;;;;;;;;;;;;;33.48;60.96;99790.13;4266459;33;20168;-90
2023/08/18 11:01:05;;;;;;;0.82;0.73;;;;;;;33.58;60.96;99780.63;4289992;33;19999;-90
2023/08/18 11:03:51;;;;;;;0.37;0.37;;;;;;;33.59;60.96;99776.06;4267190;33;20100;-91
2023/08/18 11:06:29;;;;;;;;;;;;;;;;;;;;;
2023/08/18 11:10:04;;;;;;;;;;;;;;;;;;;;;
2023/08/18 11:12:29;;;;;;;1.62;0.80;;;;;;;33.54;60.96;99767.75;4289060;33;35371;-91
2023/08/18 11:15:00;;;;;;;0.22;0.22;;;;;;;33.46;60.96;99776.00;4279565;33;20115;-92
2023/08/18 11:17:25;;;;;;;0.75;0.75;;;;;;;33.37;60.95;99775.31;4268891;33;20144;-92
2023/08/18 11:19:51;;;;;;;0.30;0.30;;;;;;;33.30;60.95;99779.78;4267985;33;20491;-90
2023/08/18 11:44:37;;;;;;;0.35;0.35;;;;;;;33.24;60.94;99772.47;4008397;28;20109;-90
2023/08/18 11:47:13;;;;;;;1.17;0.65;;;;;;;33.34;60.96;99774.84;4268179;33;20092;-95
2023/08/18 11:50:19;;;;;;;1.40;0.60;;;;;;;33.41;60.96;99775.75;4297885;33;20107;-96
2023/08/18 11:53:00;;;;;;;0.50;0.45;;;;;;;33.60;60.96;99769.66;4292367;33;20072;-94
2023/08/18 12:06:03;;;;;;;1.15;1.10;;;;;;;33.60;60.96;99766.09;4232944;33;20110;-95
2023/08/18 12:09:03;;;;;;;0.62;0.62;;;;;;;33.51;60.96;99765.44;4180379;33;20131;-96
2023/08/18 12:18:48;;;;;;;;;;;;;;;33.17;60.95;99758.94;4186638;34;20132;-93
2023/08/18 12:21:14;;;;;;;0.35;0.35;;;;;;;33.21;60.94;99757.50;4204028;33;19996;-93
2023/08/18 12:23:41;;;;;;;1.37;0.77;;;;;;;33.10;60.95;99759.88;4254814;33;20096;-94
2023/08/18 12:26:07;;;;;;;1.17;0.70;;;;;;;33.23;60.94;99757.31;4261055;33;20144;-92
2023/08/18 12:28:33;;;;;;;1.60;0.90;;;;;;;33.21;60.95;99754.81;4278051;33;20213;-92
2023/08/18 12:31:00;;;;;;;0.50;0.50;;;;;;;33.06;60.94;99759.44;4265132;33;20127;-92
2023/08/18 12:33:25;;;;;;;1.27;0.80;;;;;;;32.91;60.93;99759.53;4289862;33;20099;-93
2023/08/18 12:35:51;;;;;;;0.65;0.55;;;;;;;32.99;60.93;99765.81;4276645;33;20096;-93
2023/08/18 12:38:16;;;;;;;0.43;0.43;;;;;;;33.18;60.95;99757.91;4254224;33;20155;-93
2023/08/18 12:40:42;;;;;;;0.30;0.30;;;;;;;33.17;60.95;99761.62;4259625;33;20152;-93
2023/08/18 12:43:09;;;;;;;3.80;1.45;;;;;;;33.14;60.94;99747.69;4273252;33;20132;-93
2023/08/18 12:45:35;;;;;;;0.57;0.52;;;;;;;33.33;60.95;99757.81;4254932;33;20096;-94
2023/08/18 12:48:06;;;;;;;0.60;0.60;;;;;;;33.42;60.96;99761.22;4254267;33;20105;-95
2023/08/18 12:50:37;;;;;;;0.40;0.40;;;;;;;33.37;60.95;99759.13;4254654;33;20101;-96
2023/08/18 12:53:02;;;;;;;0.40;0.40;;;;;;;33.30;60.95;99754.66;4268822;33;20111;-96
2023/08/18 12:55:28;;;;;;;0.40;0.40;;;;;;;33.31;60.95;99756.31;4255695;33;20571;-92
2023/08/18 12:57:54;;;;;;;0.82;0.70;;;;;;;33.35;60.96;99761.16;4253196;33;20374;-93
2023/08/18 13:00:19;;;;;;;1.75;1.65;;;;;;;33.37;60.96;99755.59;4265116;33;20424;-93
2023/08/18 13:02:45;;;;;;;0.30;0.30;;;;;;;33.26;60.95;99752.34;4253312;33;20461;-92
2023/08/18 13:05:13;;;;;;;0.73;0.73;;;;;;;33.26;60.95;99751.53;4253477;33;20126;-92
2023/08/18 13:07:38;;;;;;;3.35;0.50;;;;;;;33.38;60.95;99743.78;4253806;33;20131;-92
2023/08/18 13:10:04;;;;;;;0.68;0.68;;;;;;;33.45;60.96;99741.94;4277410;33;20105;-92
2023/08/18 13:12:30;;;;;;;0.55;0.55;;;;;;;33.44;60.96;99732.19;4265638;33;20140;-92
2023/08/18 13:14:55;;;;;;;0.73;0.73;;;;;;;33.61;60.97;99725.44;4253317;33;20084;-93
2023/08/18 13:17:21;;;;;;;1.17;0.22;;;;;;;33.57;60.97;99730.38;4252867;33;20124;-93
2023/08/18 13:19:46;;;;;;;0.20;0.20;;;;;;;33.60;60.97;99729.19;4251639;33;20136;-91
2023/08/18 13:22:12;;;;;;;0.32;0.30;;;;;;;33.56;60.95;99715.22;4252770;33;20104;-93
2023/08/18 13:24:40;;;;;;;0.62;0.40;;;;;;;33.69;60.97;99719.87;4252655;33;20438;-90
2023/08/18 13:27:11;;;;;;;0.37;0.37;;;;;;;33.59;60.97;99727.50;4264311;33;20112;-91
2023/08/18 13:29:36;;;;;;;0.80;0.80;;;;;;;33.45;60.96;99723.88;4251975;33;20116;-92
2023/08/18 13:32:02;;;;;;;1.02;0.98;;;;;;;33.47;60.96;99719.13;4242983;33;20088;-91
2023/08/18 13:34:28;;;;;;;0.40;0.40;;;;;;;33.61;60.97;99716.53;4251925;33;20116;-91
2023/08/18 13:36:53;;;;;;;5.68;0.43;;;;;;;33.64;60.97;99727.75;4258470;33;20105;-91
2023/08/18 13:39:19;;;;;;;0.35;0.35;;;;;;;33.60;60.97;99718.37;4264300;33;20164;-91
2023/08/18 13:41:45;;;;;;;1.12;0.50;;;;;;;33.66;60.98;99722.97;4275741;33;20807;-92
2023/08/18 13:44:11;;;;;;;0.98;0.70;;;;;;;33.48;60.96;99722.66;4252515;33;20108;-93
2023/08/18 13:46:37;;;;;;;1.35;0.65;;;;;;;33.62;60.97;99720.88;4252066;33;20522;-94
2023/08/18 13:54:57;;;;;;;0.57;0.57;;;;;;;33.42;60.96;99740.47;4546099;28;20127;-89
2023/08/18 13:57:25;;;;;;;1.65;0.65;;;;;;;33.32;60.96;99737.28;4278164;33;20488;-90
2023/08/18 14:00:02;;;;;;;1.55;0.40;;;;;;;33.21;60.95;99741.31;4278058;33;20160;-90
2023/08/18 14:02:38;;;;;;;0.77;0.77;;;;;;;33.22;60.95;99753.78;4278986;33;20160;-90
2023/08/18 14:06:18;;;;;;;;;;;;;;;;;;;;;
2023/08/18 14:12:40;;;;;;;;;;;;;;;;;;;;;
2023/08/18 14:19:19;;;;;;;;;;;;;;;;;;;;;
2023/08/18 14:22:07;;;;;;;0.37;0.37;;;;;;;33.11;60.95;99769.66;4291992;33;35709;-91
2023/08/18 14:28:24;;;;;;;0.57;0.55;;;;;;;32.96;60.94;99780.53;4254005;33;20111;-95
2023/08/18 14:30:49;;;;;;;0.75;0.75;;;;;;;32.84;60.94;99792.81;4293665;33;20155;-90
2023/08/18 14:33:15;;;;;;;0.82;0.73;;;;;;;32.75;60.92;99793.97;4276601;33;20153;-91
2023/08/18 14:35:42;;;;;;;0.80;0.43;;;;;;;32.78;60.93;99785.47;4270262;33;20128;-89
2023/08/18 14:38:19;;;;;;;0.45;0.22;;;;;;;32.59;60.92;99790.47;4289380;33;20077;-90
2023/08/18 14:40:44;;;;;;;1.35;0.70;;;;;;;32.53;60.92;99782.31;4277813;33;20057;-89
2023/08/18 14:43:35;;;;;;;4.25;1.12;;;;;;;32.65;60.92;99783.47;4270770;33;20181;-91
2023/08/18 14:46:53;;;;;;;0.57;0.57;;;;;;;32.48;60.91;99774.81;4286543;33;20097;-95
2023/08/18 14:49:21;;;;;;;0.62;0.37;;;;;;;32.55;60.92;99782.94;4242771;33;20093;-92
2023/08/18 14:52:11;;;;;;;0.30;0.30;;;;;;;32.39;60.91;99767.84;4266094;33;20101;-94
2023/08/18 14:55:17;;;;;;;1.02;1.00;;;;;;;32.34;60.91;99772.97;4256618;33;20117;-94
2023/08/18 15:01:57;;;;;;;2.97;0.55;;;;;;;31.94;60.89;99758.97;4199007;33;20099;-95
2023/08/18 15:04:22;;;;;;;0.20;0.20;;;;;;;31.80;60.89;99756.28;4277281;33;20088;-96
2023/08/18 15:06:50;;;;;;;1.12;1.08;;;;;;;31.74;60.88;99755.19;4263835;33;20172;-92
2023/08/18 15:09:35;;;;;;;0.25;0.25;;;;;;;31.79;60.87;99757.31;4272196;33;20165;-92
2023/08/18 15:12:15;;;;;;;;;;;;;;;;;;;;;
2023/08/18 15:14:57;;;;;;;0.50;0.40;;;;;;;31.64;60.88;99743.78;4252893;33;37494;-92
2023/08/18 15:18:10;;;;;;;0.10;0.10;;;;;;;31.63;60.87;99753.72;4262950;33;20148;-94
2023/08/18 15:20:35;;;;;;;0.30;0.30;;;;;;;31.62;60.87;99745.84;4278662;33;20101;-92
2023/08/18 15:23:01;;;;;;;0.60;0.60;;;;;;;31.69;60.87;99744.91;4274077;33;20254;-91
2023/08/18 15:25:26;;;;;;;2.10;0.52;;;;;;;31.60;60.87;99747.88;4251160;33;20101;-91
2023/08/18 15:28:00;;;;;;;8.68;1.67;;;;;;;31.62;60.87;99741.28;4273566;33;20109;-92
2023/08/18 15:30:26;;;;;;;0.30;0.30;;;;;;;31.48;60.87;99747.53;4285907;33;20153;-90
2023/08/18 15:32:51;;;;;;;2.08;1.23;;;;;;;31.54;60.86;99740.56;4274006;33;20136;-92
2023/08/18 15:35:17;;;;;;;1.05;0.85;;;;;;;31.51;60.87;99741.75;4274099;33;20109;-91
2023/08/18 15:37:52;;;;;;;3.58;1.95;;;;;;;31.48;60.87;99739.44;4271813;33;20464;-95
2023/08/18 15:40:18;;;;;;;7.22;2.65;;;;;;;31.39;60.87;99733.28;4252809;33;20121;-93
2023/08/18 15:42:47;;;;;;;0.52;0.52;;;;;;;31.31;60.87;99732.56;4286208;33;20065;-94
2023/08/18 15:45:16;;;;;;;0.88;0.77;;;;;;;31.27;60.86;99729.41;4274900;33;20173;-91
2023/08/18 15:47:44;;;;;;;2.12;0.95;;;;;;;31.28;60.85;99714.94;4275204;33;20128;-92
2023/08/18 15:50:10;;;;;;;0.65;0.45;;;;;;;31.12;60.85;99707.81;4285073;33;20111;-91
2023/08/18 15:52:35;;;;;;;0.82;0.70;;;;;;;31.16;60.84;99705.59;4275544;33;20097;-90
2023/08/18 15:55:02;;;;;;;1.02;1.02;;;;;;;31.07;60.84;99698.63;4275238;33;20077;-91
2023/08/18 15:57:30;;;;;;;0.70;0.55;;;;;;;31.06;60.84;99696.97;4262711;33;20479;-93
2023/08/18 16:00:14;;;;;;;0.43;0.22;;;;;;;30.92;60.83;99695.06;4275014;33;20501;-94
2023/08/18 16:02:55;;;;;;;0.70;0.70;;;;;;;31.00;60.84;99695.00;4248485;33;20160;-92
2023/08/18 16:09:05;;;;;;;1.25;0.40;;;;;;;30.87;60.84;99694.78;4260500;33;20136;-93
2023/08/18 16:11:33;;;;;;;0.77;0.77;;;;;;;30.91;60.83;99682.63;4251557;33;20173;-91
2023/08/18 16:14:05;;;;;;;1.02;0.93;;;;;;;30.92;60.84;99677.06;4239005;33;20140;-94
2023/08/18 16:16:30;;;;;;;1.17;0.73;;;;;;;30.99;60.83;99682.56;4274419;33;20085;-94
2023/08/18 16:19:22;;;;;;;1.30;0.75;;;;;;;30.89;60.83;99673.91;4274085;33;20113;-92
2023/08/18 16:21:47;;;;;;;1.40;0.50;;;;;;;30.84;60.84;99667.25;4271999;33;20100;-90